Time;durP1;ratioP1;P1;durP2;ratioP2;P2;SDS_P1;SDS_P2;PMS_P1;PMS_P2;Temp;Humidity;BMP_temperature;BMP_pressure;BME280_temperature;BME280_humidity;BME280_pressure;Samples;Min_cycle;Max_cycle;Signal;HPM_P1;HPM_P2
2021/12/12 00:00:35;;;;;;;6.47;1.48;;;10.00;99.90;;;;;;4990742;28;20065;-81
2021/12/12 00:03:20;;;;;;;7.10;1.70;;;10.00;99.90;;;;;;4990321;28;20121;-83
2021/12/12 00:05:56;;;;;;;9.27;1.50;;;10.00;99.90;;;;;;4988613;28;20030;-79
2021/12/12 00:08:24;;;;;;;6.50;1.23;;;10.00;99.90;;;;;;4987522;28;20070;-78
2021/12/12 00:11:01;;;;;;;6.88;1.33;;;10.10;99.90;;;;;;4990535;28;20034;-76
2021/12/12 00:13:44;;;;;;;9.50;1.58;;;10.10;99.90;;;;;;4990568;28;20027;-77
2021/12/12 00:16:14;;;;;;;7.80;1.60;;;10.10;99.90;;;;;;4989832;28;20031;-79
2021/12/12 00:18:43;;;;;;;8.45;1.73;;;10.00;99.90;;;;;;4990139;28;20025;-78
2021/12/12 00:21:29;;;;;;;12.15;1.45;;;10.00;99.90;;;;;;4974147;28;20414;-78
2021/12/12 00:23:56;;;;;;;9.75;1.70;;;10.00;99.90;;;;;;4994293;28;20030;-77
2021/12/12 00:26:24;;;;;;;8.77;1.60;;;9.90;99.90;;;;;;4961482;28;20426;-77
2021/12/12 00:28:51;;;;;;;10.88;1.48;;;9.90;99.90;;;;;;5011641;28;20053;-77
2021/12/12 00:31:22;;;;;;;9.55;1.30;;;10.00;99.90;;;;;;5035626;28;20022;-77
2021/12/12 00:33:53;;;;;;;4.68;0.85;;;10.10;99.90;;;;;;5034296;28;20030;-77
2021/12/12 00:36:21;;;;;;;8.68;1.73;;;10.10;99.90;;;;;;5035246;28;20033;-78
2021/12/12 00:38:56;;;;;;;10.23;1.30;;;10.10;99.90;;;;;;5035471;28;20033;-77
2021/12/12 00:41:39;;;;;;;8.98;1.60;;;10.10;99.90;;;;;;5035722;28;20394;-78
2021/12/12 00:44:06;;;;;;;8.63;1.33;;;10.10;99.90;;;;;;5035550;28;20036;-78
2021/12/12 00:46:34;;;;;;;6.50;1.83;;;10.20;99.90;;;;;;5034172;28;20022;-77
2021/12/12 00:49:01;;;;;;;8.13;1.70;;;10.20;99.90;;;;;;5035092;28;20053;-78
2021/12/12 00:51:33;;;;;;;7.57;1.40;;;10.20;99.90;;;;;;5034915;28;20033;-78
2021/12/12 00:54:18;;;;;;;6.38;1.38;;;10.20;99.90;;;;;;5035287;28;20072;-78
2021/12/12 00:56:46;;;;;;;10.07;1.88;;;10.20;99.90;;;;;;5035345;28;20038;-77
2021/12/12 00:59:25;;;;;;;7.10;1.67;;;10.10;99.90;;;;;;5033231;28;20473;-78
2021/12/12 01:01:53;;;;;;;13.57;1.55;;;10.10;99.90;;;;;;5034831;28;20033;-78
2021/12/12 01:04:21;;;;;;;4.45;1.10;;;10.10;99.90;;;;;;5035249;28;20036;-78
2021/12/12 01:06:50;;;;;;;13.32;1.50;;;10.10;99.90;;;;;;5033282;28;20022;-77
2021/12/12 01:09:20;;;;;;;6.95;1.35;;;10.10;99.90;;;;;;5034655;28;20029;-77
2021/12/12 01:11:50;;;;;;;6.80;1.40;;;10.20;99.90;;;;;;5034874;28;20142;-78
2021/12/12 01:14:21;;;;;;;9.45;1.48;;;10.10;99.90;;;;;;5034970;28;20128;-78
2021/12/12 01:17:04;;;;;;;12.32;2.00;;;10.20;99.90;;;;;;5034700;28;20083;-78
2021/12/12 01:19:39;;;;;;;7.95;1.40;;;10.10;99.90;;;;;;5033130;28;20474;-78
2021/12/12 01:22:15;;;;;;;9.05;1.73;;;10.10;99.90;;;;;;5034827;28;20109;-77
2021/12/12 01:24:45;;;;;;;6.32;1.30;;;10.10;99.90;;;;;;5034377;28;20030;-78
2021/12/12 01:27:19;;;;;;;12.02;1.52;;;10.00;99.90;;;;;;5045110;28;20041;-73
2021/12/12 01:29:46;;;;;;;10.98;2.22;;;10.00;99.90;;;;;;5074219;28;20044;-77
2021/12/12 01:32:22;;;;;;;8.07;1.40;;;10.00;99.90;;;;;;5074337;28;20096;-78
2021/12/12 01:34:51;;;;;;;;;;;10.00;99.90;;;;;;5055344;28;20094;-79
2021/12/12 01:40:00;;;;;;;7.13;1.27;;;9.90;99.90;;;;;;5074014;28;20441;-79
2021/12/12 01:42:30;;;;;;;10.77;1.92;;;9.90;99.90;;;;;;5074110;28;20071;-80
2021/12/12 01:45:11;;;;;;;8.35;1.95;;;9.90;99.90;;;;;;5074220;28;20032;-78
2021/12/12 01:47:44;;;;;;;9.93;2.10;;;9.90;99.90;;;;;;5074137;28;20115;-77
2021/12/12 01:50:16;;;;;;;9.85;1.42;;;9.90;99.90;;;;;;5055817;28;20024;-77
2021/12/12 01:52:43;;;;;;;10.00;1.52;;;9.80;99.90;;;;;;5074224;28;20103;-78
2021/12/12 01:55:34;;;;;;;7.88;1.55;;;9.90;99.90;;;;;;5055800;28;20130;-78
2021/12/12 01:58:10;;;;;;;14.32;2.05;;;10.00;99.90;;;;;;5056244;28;20477;-78
2021/12/12 02:00:45;;;;;;;6.50;1.60;;;9.90;99.90;;;;;;5074097;28;20028;-79
2021/12/12 02:03:17;;;;;;;6.53;1.60;;;9.90;99.90;;;;;;5073982;28;20130;-77
2021/12/12 02:05:54;;;;;;;6.28;1.50;;;9.90;99.90;;;;;;5073468;28;20028;-78
2021/12/12 02:08:21;;;;;;;6.95;1.15;;;9.90;99.90;;;;;;5055225;28;20024;-78
2021/12/12 02:10:53;;;;;;;4.13;1.15;;;9.90;99.90;;;;;;5073802;28;20104;-78
2021/12/12 02:13:23;;;;;;;8.05;1.27;;;9.90;99.90;;;;;;5073743;28;20495;-77
2021/12/12 02:15:53;;;;;;;9.82;2.13;;;10.00;99.90;;;;;;5073127;28;20063;-78
2021/12/12 02:18:29;;;;;;;5.13;1.30;;;10.00;99.90;;;;;;5073672;28;20372;-78
2021/12/12 02:21:18;;;;;;;12.18;1.85;;;10.10;99.90;;;;;;5072998;28;20029;-78
2021/12/12 02:35:23;;;;;;;10.63;1.90;;;10.00;99.90;;;;;;5073176;28;20047;-78
2021/12/12 02:37:54;;;;;;;8.98;1.60;;;10.00;99.90;;;;;;5054741;28;20162;-77
2021/12/12 02:40:26;;;;;;;13.07;1.83;;;9.90;99.90;;;;;;5072839;28;20469;-78
2021/12/12 02:42:53;;;;;;;8.50;1.85;;;10.00;99.90;;;;;;5072853;28;20021;-78
2021/12/12 02:45:22;;;;;;;9.40;1.88;;;9.90;99.90;;;;;;5072812;28;20017;-78
2021/12/12 02:47:56;;;;;;;14.52;2.08;;;9.90;99.90;;;;;;5072635;28;20475;-77
2021/12/12 02:50:32;;;;;;;9.52;2.17;;;9.90;99.90;;;;;;5072941;28;20025;-78
2021/12/12 02:53:08;;;;;;;10.15;1.60;;;9.90;99.90;;;;;;5072823;28;20104;-77
2021/12/12 02:55:39;;;;;;;7.90;1.42;;;9.90;99.90;;;;;;5073009;28;20036;-78
2021/12/12 02:58:09;;;;;;;11.32;1.50;;;9.90;99.90;;;;;;5072434;28;20086;-78
2021/12/12 03:00:43;;;;;;;13.40;1.98;;;9.90;99.90;;;;;;5072640;28;20396;-77
2021/12/12 03:03:11;;;;;;;11.43;2.53;;;9.90;99.90;;;;;;5072382;28;20028;-77
2021/12/12 03:05:43;;;;;;;11.75;1.73;;;10.00;99.90;;;;;;5072663;28;20038;-78
2021/12/12 03:08:10;;;;;;;5.45;1.77;;;9.90;99.90;;;;;;5072326;28;20075;-77
2021/12/12 03:10:39;;;;;;;9.00;1.92;;;9.90;99.90;;;;;;5054223;28;20024;-78
2021/12/12 03:13:07;;;;;;;8.85;1.85;;;9.90;99.90;;;;;;5072715;28;20072;-78
2021/12/12 03:15:38;;;;;;;11.05;1.70;;;9.90;99.90;;;;;;5072605;28;20051;-78
2021/12/12 03:18:09;;;;;;;12.02;1.80;;;9.80;99.90;;;;;;5072713;28;20082;-77
2021/12/12 03:20:42;;;;;;;12.90;2.10;;;9.90;99.90;;;;;;5054794;28;20489;-77
2021/12/12 03:23:22;;;;;;;10.80;1.83;;;9.80;99.90;;;;;;5072176;28;20471;-78
2021/12/12 03:25:55;;;;;;;10.63;1.85;;;9.80;99.90;;;;;;5072328;28;20039;-77
2021/12/12 03:28:26;;;;;;;12.48;2.03;;;9.80;99.90;;;;;;5072246;28;20068;-78
2021/12/12 03:30:55;;;;;;;10.65;1.63;;;9.80;99.90;;;;;;5054076;28;20485;-78
2021/12/12 03:33:22;;;;;;;10.68;2.25;;;9.90;99.90;;;;;;5072519;28;20089;-78
2021/12/12 03:35:51;;;;;;;7.30;1.80;;;10.00;99.90;;;;;;5071909;28;20087;-78
2021/12/12 03:38:18;;;;;;;9.27;1.60;;;10.10;99.90;;;;;;5053881;28;20025;-72
2021/12/12 03:40:46;;;;;;;10.63;1.92;;;10.10;99.90;;;;;;5072123;28;20028;-77
2021/12/12 03:43:15;;;;;;;10.05;1.80;;;10.20;99.90;;;;;;5071866;28;20433;-76
2021/12/12 03:45:43;;;;;;;11.38;1.58;;;10.20;99.90;;;;;;5071791;28;20064;-76
2021/12/12 03:48:21;;;;;;;6.72;1.65;;;10.20;99.90;;;;;;5071854;28;20021;-76
2021/12/12 03:50:50;;;;;;;6.53;1.40;;;10.20;99.90;;;;;;5072052;28;20393;-76
2021/12/12 03:53:20;;;;;;;8.60;1.98;;;10.30;99.90;;;;;;5072002;28;20391;-77
2021/12/12 03:55:48;;;;;;;13.95;2.13;;;10.30;99.90;;;;;;5071698;28;20032;-76
2021/12/12 03:58:15;;;;;;;10.88;1.70;;;10.30;99.90;;;;;;5075797;28;20446;-76
2021/12/12 04:00:48;;;;;;;8.43;2.03;;;10.30;99.90;;;;;;5075908;28;20561;-76
2021/12/12 04:03:15;;;;;;;9.43;2.10;;;10.40;99.90;;;;;;5076006;28;20028;-76
2021/12/12 04:05:47;;;;;;;9.82;1.70;;;10.20;99.90;;;;;;5075836;28;20028;-76
2021/12/12 04:08:13;;;;;;;8.23;1.65;;;10.20;99.90;;;;;;5075550;28;20078;-76
2021/12/12 04:10:55;;;;;;;14.18;1.90;;;10.10;99.90;;;;;;5076028;28;20025;-77
2021/12/12 04:13:22;;;;;;;8.98;1.55;;;10.00;99.90;;;;;;5075776;28;20093;-77
2021/12/12 04:15:53;;;;;;;8.52;1.48;;;10.10;99.90;;;;;;5075941;28;20119;-76
2021/12/12 04:18:29;;;;;;;8.25;1.80;;;10.10;99.90;;;;;;5057324;28;20463;-76
2021/12/12 04:20:56;;;;;;;7.15;1.70;;;10.10;99.90;;;;;;5075731;28;20032;-76
2021/12/12 04:23:27;;;;;;;9.43;1.45;;;10.10;99.90;;;;;;5057252;28;20503;-76
2021/12/12 04:25:54;;;;;;;6.47;1.70;;;10.10;99.90;;;;;;5075201;28;20025;-75
2021/12/12 04:28:20;;;;;;;7.38;1.70;;;10.20;99.90;;;;;;5075184;28;20048;-76
2021/12/12 04:30:53;;;;;;;6.43;1.48;;;10.20;99.90;;;;;;5075433;28;20061;-77
2021/12/12 04:33:19;;;;;;;6.65;1.60;;;10.10;99.90;;;;;;5075586;28;20035;-77
2021/12/12 04:35:45;;;;;;;11.23;1.40;;;10.10;99.90;;;;;;5075200;28;20051;-75
2021/12/12 04:38:11;;;;;;;7.27;1.60;;;10.10;99.90;;;;;;5075038;28;20032;-76
2021/12/12 04:40:37;;;;;;;11.30;1.77;;;10.10;99.90;;;;;;5075132;28;20028;-76
2021/12/12 04:43:05;;;;;;;7.05;2.20;;;10.00;99.90;;;;;;5075438;28;20270;-77
2021/12/12 04:46:02;;;;;;;10.77;1.77;;;10.00;99.90;;;;;;5075109;28;20345;-76
2021/12/12 04:51:48;;;;;;;11.25;1.88;;;10.00;99.90;;;;;;5074975;28;20036;-77
2021/12/12 04:54:28;;;;;;;11.63;1.80;;;10.00;99.90;;;;;;5074993;28;20097;-76
2021/12/12 04:57:23;;;;;;;7.85;1.42;;;10.00;99.90;;;;;;5075251;28;20096;-76
2021/12/12 05:00:00;;;;;;;6.75;1.40;;;10.00;99.90;;;;;;5070855;28;20104;-76
2021/12/12 05:02:57;;;;;;;;;;;10.00;99.90;;;;;;5075535;28;20512;-76
2021/12/12 05:05:34;;;;;;;6.10;1.40;;;10.00;99.90;;;;;;5074808;28;19905;-77
2021/12/12 05:08:15;;;;;;;6.05;1.48;;;10.00;99.90;;;;;;5073670;28;20029;-77
2021/12/12 05:11:06;;;;;;;6.13;1.38;;;10.00;99.90;;;;;;5075030;28;20036;-77
2021/12/12 05:13:48;;;;;;;9.52;1.40;;;10.00;99.90;;;;;;5074554;28;20017;-76
2021/12/12 05:16:17;;;;;;;13.40;1.73;;;10.00;99.90;;;;;;5056483;28;20055;-76
2021/12/12 05:18:50;;;;;;;11.48;1.60;;;10.00;99.90;;;;;;5074248;28;20017;-76
2021/12/12 05:21:27;;;;;;;8.82;1.83;;;9.90;99.90;;;;;;5074595;28;20036;-75
2021/12/12 05:23:59;;;;;;;8.60;2.70;;;9.90;99.90;;;;;;5074757;28;20381;-76
2021/12/12 05:26:34;;;;;;;11.23;2.03;;;10.00;99.90;;;;;;5074678;28;20034;-76
2021/12/12 05:29:06;;;;;;;9.68;1.73;;;10.00;99.90;;;;;;5074390;28;20044;-77
2021/12/12 05:31:33;;;;;;;13.40;2.20;;;10.00;99.90;;;;;;5074538;28;20023;-76
2021/12/12 05:34:00;;;;;;;12.02;2.42;;;10.00;99.90;;;;;;5074159;28;20055;-76
2021/12/12 05:36:28;;;;;;;14.20;2.30;;;10.00;99.90;;;;;;5074163;28;20033;-76
2021/12/12 05:38:58;;;;;;;10.52;2.33;;;10.10;99.90;;;;;;5074179;28;20099;-76
2021/12/12 05:41:24;;;;;;;8.45;1.67;;;10.10;99.90;;;;;;5073918;28;20028;-76
2021/12/12 05:43:56;;;;;;;7.90;1.80;;;10.10;99.90;;;;;;5073789;28;20166;-77
2021/12/12 05:46:28;;;;;;;6.85;1.70;;;10.10;99.90;;;;;;5074001;28;20020;-76
2021/12/12 05:49:04;;;;;;;4.75;1.20;;;10.10;99.90;;;;;;5074251;28;20346;-77
2021/12/12 05:51:31;;;;;;;7.78;1.17;;;10.10;99.90;;;;;;5073988;28;20028;-77
2021/12/12 05:54:25;;;;;;;;;;;10.20;99.90;;;;;;5073967;28;20050;-77
2021/12/12 05:56:53;;;;;;;6.18;1.50;;;10.20;99.90;;;;;;5074165;28;19904;-76
2021/12/12 05:59:21;;;;;;;6.78;1.23;;;10.20;99.90;;;;;;5055605;28;20034;-76
2021/12/12 06:01:49;;;;;;;6.15;1.58;;;10.20;99.90;;;;;;5073690;28;20043;-76
2021/12/12 06:04:18;;;;;;;5.85;1.33;;;10.00;99.90;;;;;;5074063;28;20075;-77
2021/12/12 06:06:46;;;;;;;5.35;1.35;;;9.90;99.90;;;;;;5073435;28;20078;-77
2021/12/12 06:09:12;;;;;;;;;;;9.80;99.90;;;;;;5073872;28;20100;-78
2021/12/12 06:11:42;;;;;;;4.03;1.15;;;9.80;99.90;;;;;;5073994;28;20344;-76
2021/12/12 06:14:09;;;;;;;2.60;0.88;;;9.80;99.90;;;;;;5073807;28;20033;-76
2021/12/12 06:16:36;;;;;;;4.68;1.10;;;9.80;99.90;;;;;;5073815;28;20473;-77
2021/12/12 06:19:16;;;;;;;2.30;0.70;;;9.80;99.90;;;;;;5073628;28;20039;-77
2021/12/12 06:21:45;;;;;;;2.08;0.77;;;9.90;99.90;;;;;;5056664;28;20028;-77
2021/12/12 06:24:13;;;;;;;2.95;0.75;;;10.00;99.90;;;;;;5055900;28;20036;-76
2021/12/12 06:26:40;;;;;;;2.03;0.70;;;10.00;99.90;;;;;;5072914;28;20031;-77
2021/12/12 06:29:07;;;;;;;5.97;0.77;;;10.00;99.90;;;;;;5073153;28;20037;-77
2021/12/12 06:31:41;;;;;;;3.40;0.60;;;10.00;99.90;;;;;;5073085;28;20093;-77
2021/12/12 06:34:10;;;;;;;3.47;0.73;;;10.20;99.90;;;;;;5073110;28;20115;-77
2021/12/12 06:36:36;;;;;;;2.13;0.60;;;10.50;99.90;;;;;;5055213;28;20480;-76
2021/12/12 06:39:07;;;;;;;4.38;0.80;;;10.90;99.90;;;;;;5073337;28;20048;-77
2021/12/12 06:41:34;;;;;;;4.40;0.80;;;11.30;99.90;;;;;;5073281;28;20029;-77
2021/12/12 06:44:04;;;;;;;6.90;0.80;;;11.50;99.90;;;;;;5073131;28;20025;-77
2021/12/12 06:46:32;;;;;;;3.35;1.10;;;11.80;99.90;;;;;;5072808;28;20036;-76
2021/12/12 06:48:58;;;;;;;5.13;0.98;;;12.10;99.90;;;;;;5054885;28;20025;-77
2021/12/12 06:51:27;;;;;;;4.20;1.05;;;12.50;99.90;;;;;;5072734;28;20025;-76
2021/12/12 06:53:54;;;;;;;3.80;1.10;;;13.10;99.90;;;;;;5072964;28;20024;-76
2021/12/12 06:56:21;;;;;;;2.92;0.73;;;13.80;99.90;;;;;;5072768;28;20032;-76
2021/12/12 06:58:49;;;;;;;4.50;0.90;;;14.20;99.90;;;;;;5072688;28;20036;-75
2021/12/12 07:01:21;;;;;;;2.10;0.60;;;14.70;99.90;;;;;;5054664;28;20029;-75
2021/12/12 07:03:48;;;;;;;3.22;0.88;;;14.50;99.90;;;;;;5072942;28;20030;-74
2021/12/12 07:06:20;;;;;;;4.72;0.95;;;14.20;99.90;;;;;;5072869;28;20059;-76
2021/12/12 07:08:47;;;;;;;2.38;0.75;;;14.00;99.90;;;;;;5072679;28;20025;-76
2021/12/12 07:11:22;;;;;;;2.97;0.93;;;14.20;99.90;;;;;;5054315;28;20047;-75
2021/12/12 07:13:50;;;;;;;4.65;0.98;;;14.50;99.90;;;;;;5072338;28;20029;-75
2021/12/12 07:16:20;;;;;;;4.38;1.10;;;14.70;99.90;;;;;;5072459;28;20052;-75
2021/12/12 07:18:47;;;;;;;5.38;1.20;;;14.10;99.90;;;;;;5054052;28;20035;-75
2021/12/12 07:21:16;;;;;;;5.35;1.50;;;13.80;99.90;;;;;;5072683;28;20082;-75
2021/12/12 07:24:01;;;;;;;4.68;1.02;;;12.80;99.90;;;;;;5054033;28;20132;-76
2021/12/12 07:26:28;;;;;;;2.78;1.02;;;12.50;99.90;;;;;;5072533;28;20035;-74
2021/12/12 07:28:56;;;;;;;4.15;1.20;;;12.50;99.90;;;;;;5071919;28;20085;-74
2021/12/12 07:31:26;;;;;;;7.28;1.38;;;12.90;99.90;;;;;;5071236;28;20025;-73
2021/12/12 07:34:00;;;;;;;8.63;1.50;;;13.40;99.90;;;;;;5072224;28;20028;-74
2021/12/12 07:36:30;;;;;;;4.88;1.40;;;14.00;99.90;;;;;;5072281;28;20033;-72
2021/12/12 07:38:59;;;;;;;5.95;1.23;;;14.70;99.90;;;;;;5071952;28;20242;-72
2021/12/12 07:41:29;;;;;;;4.72;1.02;;;15.00;99.90;;;;;;5071958;28;20115;-73
2021/12/12 07:43:57;;;;;;;5.72;1.35;;;14.90;99.90;;;;;;5072248;28;20066;-74
2021/12/12 07:46:27;;;;;;;5.15;1.20;;;14.80;99.90;;;;;;5053901;28;20056;-72
2021/12/12 07:48:54;;;;;;;8.23;1.45;;;14.70;99.90;;;;;;5072068;28;20025;-75
2021/12/12 07:51:22;;;;;;;7.50;1.50;;;14.50;99.90;;;;;;5071856;28;20489;-72
2021/12/12 07:53:52;;;;;;;6.43;1.30;;;14.40;99.90;;;;;;5071720;28;20036;-72
2021/12/12 07:56:23;;;;;;;6.78;1.33;;;14.30;99.90;;;;;;5072146;28;20032;-72
2021/12/12 07:58:50;;;;;;;6.65;1.40;;;14.20;99.90;;;;;;5071974;28;20032;-72
2021/12/12 08:01:16;;;;;;;;;;;14.30;99.90;;;;;;5072404;28;20433;-73
2021/12/12 08:03:43;;;;;;;9.48;1.60;;;14.40;99.90;;;;;;5071822;28;20279;-72
2021/12/12 08:06:14;;;;;;;9.02;1.70;;;14.60;99.90;;;;;;5071421;28;20053;-73
2021/12/12 08:08:41;;;;;;;8.73;2.05;;;14.80;99.90;;;;;;5071500;28;20042;-74
2021/12/12 08:11:08;;;;;;;8.48;2.00;;;14.90;99.90;;;;;;5071600;28;20095;-73
2021/12/12 08:13:35;;;;;;;14.07;2.28;;;14.70;99.90;;;;;;5071597;28;20025;-72
2021/12/12 08:16:05;;;;;;;13.68;2.22;;;14.60;99.90;;;;;;5053430;28;20123;-73
2021/12/12 08:18:33;;;;;;;13.52;2.13;;;14.40;99.90;;;;;;5071442;28;20048;-73
2021/12/12 08:21:00;;;;;;;8.70;1.60;;;14.30;99.90;;;;;;5053446;28;20029;-68
2021/12/12 08:23:35;;;;;;;7.40;1.80;;;14.20;99.90;;;;;;5071417;28;20034;-72
2021/12/12 08:26:02;;;;;;;12.52;2.10;;;14.10;99.90;;;;;;5071297;28;20036;-73
2021/12/12 08:28:30;;;;;;;8.95;2.08;;;14.20;99.90;;;;;;5071241;28;20052;-70
2021/12/12 08:30:57;;;;;;;11.23;1.80;;;14.20;99.90;;;;;;5071388;28;20035;-71
2021/12/12 08:33:23;;;;;;;17.63;2.70;;;14.60;99.90;;;;;;5071478;28;20029;-71
2021/12/12 08:35:50;;;;;;;10.27;2.10;;;14.80;99.90;;;;;;5071675;28;20046;-72
2021/12/12 08:38:17;;;;;;;11.27;1.95;;;14.70;99.90;;;;;;5070975;28;20027;-71
2021/12/12 08:40:47;;;;;;;13.48;2.10;;;14.50;99.90;;;;;;5071529;28;20040;-82
2021/12/12 08:43:16;;;;;;;12.38;1.90;;;14.60;99.90;;;;;;5055513;28;20070;-70
2021/12/12 08:45:52;;;;;;;8.40;1.70;;;14.80;99.90;;;;;;5075257;28;20030;-71
2021/12/12 08:48:23;;;;;;;12.20;1.83;;;14.90;99.90;;;;;;5074978;28;20069;-70
2021/12/12 08:50:53;;;;;;;8.88;1.50;;;14.80;99.90;;;;;;5074978;28;20078;-71
2021/12/12 08:53:20;;;;;;;7.53;1.85;;;14.80;99.90;;;;;;5074730;28;20456;-70
2021/12/12 08:55:49;;;;;;;8.73;1.60;;;15.10;99.90;;;;;;5074758;28;20136;-70
2021/12/12 08:58:20;;;;;;;10.00;2.05;;;15.30;99.90;;;;;;5056610;28;20016;-70
2021/12/12 09:00:59;;;;;;;7.75;1.92;;;15.00;99.90;;;;;;5056523;28;20036;-70
2021/12/12 09:03:57;;;;;;;12.00;2.10;;;14.50;99.90;;;;;;5074839;28;20024;-70
2021/12/12 09:06:36;;;;;;;11.10;2.58;;;14.40;99.90;;;;;;5074679;28;20484;-71
2021/12/12 09:09:16;;;;;;;11.45;2.90;;;14.70;99.90;;;;;;5056211;28;20361;-71
2021/12/12 09:12:08;;;;;;;14.98;3.88;;;14.80;99.90;;;;;;5074883;28;20028;-71
2021/12/12 09:15:15;;;;;;;15.88;4.10;;;15.10;99.90;;;;;;5063499;28;20047;-71
2021/12/12 09:17:48;;;;;;;14.85;3.72;;;14.80;99.90;;;;;;5071556;28;20040;-71
2021/12/12 09:20:17;;;;;;;12.95;3.30;;;14.90;99.90;;;;;;5074421;28;20028;-71
2021/12/12 09:23:01;;;;;;;6.47;2.10;;;15.30;99.90;;;;;;5073928;28;20033;-71
2021/12/12 09:25:43;;;;;;;8.65;2.50;;;14.90;99.90;;;;;;5074428;28;20013;-71
2021/12/12 09:28:30;;;;;;;11.40;2.35;;;15.00;99.90;;;;;;5055661;28;20049;-70
2021/12/12 09:31:03;;;;;;;11.43;2.25;;;15.10;99.90;;;;;;5074297;28;20024;-69
2021/12/12 09:33:50;;;;;;;14.13;2.47;;;14.80;99.90;;;;;;5074304;28;20384;-71
2021/12/12 09:36:20;;;;;;;;;;;14.80;99.90;;;;;;5056382;28;20392;-69
2021/12/12 09:39:02;;;;;;;10.80;1.90;;;14.90;99.90;;;;;;5073901;28;19909;-69
2021/12/12 09:41:46;;;;;;;15.05;2.35;;;15.20;99.90;;;;;;5073775;28;20028;-70
2021/12/12 09:44:43;;;;;;;9.18;2.10;;;15.30;99.90;;;;;;5056297;28;20449;-70
2021/12/12 09:47:29;;;;;;;11.60;2.22;;;15.40;99.90;;;;;;5055768;28;20028;-70
2021/12/12 09:53:29;;;;;;;8.88;1.90;;;15.20;99.90;;;;;;5073912;28;20040;-70
2021/12/12 09:56:48;;;;;;;5.93;1.95;;;15.40;99.90;;;;;;5054540;28;20042;-67
2021/12/12 09:59:49;;;;;;;8.57;1.63;;;15.40;99.90;;;;;;5039973;28;20358;-72
2021/12/12 10:02:20;;;;;;;12.68;1.60;;;15.30;99.90;;;;;;5055138;28;20032;-72
2021/12/12 10:05:04;;;;;;;12.90;1.98;;;15.60;99.90;;;;;;5073756;28;20064;-71
2021/12/12 10:07:48;;;;;;;8.13;2.03;;;15.70;99.90;;;;;;5073750;28;20215;-72
2021/12/12 10:10:34;;;;;;;9.55;1.90;;;15.80;99.90;;;;;;5073088;28;20429;-71
2021/12/12 10:13:21;;;;;;;10.98;2.08;;;16.10;99.90;;;;;;5054863;28;20023;-73
2021/12/12 10:15:59;;;;;;;12.07;2.67;;;16.30;99.90;;;;;;5054961;28;20033;-71
2021/12/12 10:18:43;;;;;;;8.90;2.10;;;16.50;99.90;;;;;;5055163;28;20020;-72
2021/12/12 10:21:21;;;;;;;7.72;2.10;;;16.40;99.40;;;;;;5073429;28;20025;-73
2021/12/12 10:24:21;;;;;;;11.85;2.15;;;16.50;99.20;;;;;;5073164;28;20092;-72
2021/12/12 10:27:03;;;;;;;12.48;2.03;;;16.40;98.90;;;;;;5072950;28;20062;-73
2021/12/12 10:29:52;;;;;;;9.60;1.95;;;16.60;99.50;;;;;;5073213;28;20029;-71
2021/12/12 10:32:26;;;;;;;10.95;1.85;;;16.80;98.80;;;;;;5054633;28;20512;-71
2021/12/12 10:35:03;;;;;;;10.73;2.08;;;16.90;99.50;;;;;;5071454;28;20487;-72
2021/12/12 10:37:41;;;;;;;11.90;2.20;;;16.70;98.50;;;;;;5054637;28;20056;-71
2021/12/12 10:40:16;;;;;;;13.77;2.42;;;16.40;98.30;;;;;;5072912;28;20626;-71
2021/12/12 10:42:50;;;;;;;11.73;2.08;;;15.80;99.20;;;;;;5072202;28;20040;-71
2021/12/12 10:45:49;;;;;;;10.05;2.20;;;15.60;99.40;;;;;;5072286;28;20032;-72
2021/12/12 10:48:18;;;;;;;10.85;2.10;;;15.30;99.70;;;;;;4991207;28;20121;-71
2021/12/12 10:50:55;;;;;;;12.88;2.33;;;15.20;99.90;;;;;;4990881;28;20037;-71
2021/12/12 10:53:47;;;;;;;7.57;1.75;;;15.00;99.90;;;;;;4991401;28;20056;-71
2021/12/12 10:56:43;;;;;;;11.23;1.90;;;14.60;99.90;;;;;;4947598;28;20177;-72
2021/12/12 10:59:33;;;;;;;10.10;1.98;;;14.50;99.90;;;;;;4974900;28;20176;-71
2021/12/12 11:02:06;;;;;;;12.63;2.45;;;14.80;99.90;;;;;;4991045;28;20037;-71
2021/12/12 11:04:43;;;;;;;12.18;2.20;;;14.70;99.90;;;;;;4991025;28;20113;-72
2021/12/12 11:07:29;;;;;;;13.73;2.22;;;14.80;99.90;;;;;;4990979;28;20475;-71
2021/12/12 11:10:10;;;;;;;11.32;1.90;;;15.00;99.90;;;;;;4991333;28;20027;-71
2021/12/12 11:12:45;;;;;;;10.23;2.00;;;14.90;99.90;;;;;;4991330;28;20043;-72
2021/12/12 11:15:18;;;;;;;14.95;2.22;;;14.90;99.90;;;;;;4991134;28;20364;-72
2021/12/12 11:18:01;;;;;;;9.57;2.03;;;14.90;99.90;;;;;;4990981;28;20042;-70
2021/12/12 11:20:36;;;;;;;9.73;2.03;;;14.90;99.90;;;;;;4990763;28;20038;-70
2021/12/12 11:23:29;;;;;;;10.05;1.67;;;14.80;99.90;;;;;;4990933;28;20034;-70
2021/12/12 11:26:00;;;;;;;10.00;2.13;;;15.20;99.90;;;;;;5071857;28;20501;-73
2021/12/12 11:28:47;;;;;;;7.72;1.73;;;15.70;99.90;;;;;;5071885;28;20075;-72
2021/12/12 11:31:26;;;;;;;10.27;2.53;;;15.90;99.90;;;;;;5053679;28;20033;-71
2021/12/12 11:33:54;;;;;;;10.27;1.95;;;15.70;99.30;;;;;;5072201;28;20178;-72
2021/12/12 11:36:26;;;;;;;9.88;1.70;;;16.00;99.90;;;;;;5071672;28;20105;-71
2021/12/12 11:39:16;;;;;;;9.60;1.83;;;16.20;99.90;;;;;;5071583;28;20028;-72
2021/12/12 11:41:59;;;;;;;7.95;1.77;;;16.20;99.90;;;;;;5071838;28;20056;-70
2021/12/12 11:44:39;;;;;;;12.75;2.00;;;16.10;99.90;;;;;;5053187;28;20141;-73
2021/12/12 11:47:50;;;;;;;9.18;1.80;;;16.00;99.90;;;;;;5071370;28;20069;-71
2021/12/12 11:50:29;;;;;;;12.07;1.90;;;15.90;99.60;;;;;;5050855;28;20105;-71
2021/12/12 11:53:04;;;;;;;8.48;1.85;;;15.50;99.90;;;;;;5071434;28;20020;-71
2021/12/12 11:55:47;;;;;;;9.82;1.73;;;15.70;99.90;;;;;;5071567;28;20037;-72
2021/12/12 11:58:37;;;;;;;9.18;1.92;;;15.70;99.80;;;;;;5054211;28;20029;-71
2021/12/12 12:01:28;;;;;;;13.55;1.90;;;15.80;99.10;;;;;;5053585;28;20033;-71
2021/12/12 12:04:07;;;;;;;10.55;1.63;;;15.60;99.00;;;;;;5052914;28;20078;-69
2021/12/12 12:07:06;;;;;;;9.77;1.65;;;15.50;99.50;;;;;;5071541;28;20479;-70
2021/12/12 12:10:09;;;;;;;8.77;1.67;;;15.60;99.50;;;;;;5071474;28;20069;-70
2021/12/12 12:13:11;;;;;;;8.07;1.60;;;15.50;99.80;;;;;;5070799;28;20029;-70
2021/12/12 12:16:08;;;;;;;8.23;1.60;;;15.50;99.90;;;;;;5053035;28;20044;-69
2021/12/12 12:19:11;;;;;;;10.25;2.00;;;15.30;99.90;;;;;;5073623;28;20021;-70
2021/12/12 12:22:24;;;;;;;8.98;1.92;;;15.20;99.90;;;;;;5074910;28;20124;-70
2021/12/12 12:25:01;;;;;;;6.03;1.40;;;15.00;99.90;;;;;;5075653;28;20157;-69
2021/12/12 12:27:35;;;;;;;8.77;1.80;;;14.90;99.90;;;;;;5075101;28;20129;-69
2021/12/12 12:30:03;;;;;;;7.75;2.00;;;14.80;99.90;;;;;;5075790;28;20025;-71
2021/12/12 12:33:06;;;;;;;8.73;1.88;;;15.00;99.90;;;;;;5075949;28;20489;-69
2021/12/12 12:36:10;;;;;;;7.63;2.00;;;15.10;99.90;;;;;;5033798;28;20040;-70
2021/12/12 12:39:06;;;;;;;9.25;1.90;;;15.30;99.70;;;;;;5074961;28;20074;-70
2021/12/12 12:41:57;;;;;;;11.57;1.95;;;15.30;99.90;;;;;;5075202;28;20457;-69
2021/12/12 12:45:00;;;;;;;8.65;2.17;;;14.90;99.30;;;;;;5075408;28;20025;-70
2021/12/12 12:47:41;;;;;;;8.27;1.83;;;15.30;99.90;;;;;;5075068;28;20073;-69
2021/12/12 12:50:44;;;;;;;9.05;1.90;;;15.20;98.80;;;;;;5075506;28;20041;-69
2021/12/12 12:53:38;;;;;;;9.98;1.90;;;15.10;99.40;;;;;;5056858;28;20029;-69
2021/12/12 12:56:16;;;;;;;14.40;1.88;;;15.20;99.90;;;;;;5074566;28;20047;-69
2021/12/12 12:59:01;;;;;;;12.13;2.15;;;15.30;99.90;;;;;;5074921;28;20048;-69
2021/12/12 13:01:49;;;;;;;10.27;1.80;;;15.30;99.50;;;;;;5075291;28;20111;-69
2021/12/12 13:04:25;;;;;;;8.27;1.58;;;15.70;99.40;;;;;;5075262;28;20020;-71
2021/12/12 13:07:11;;;;;;;8.90;1.83;;;15.90;98.50;;;;;;5074840;28;20016;-71
2021/12/12 13:10:02;;;;;;;8.98;1.73;;;16.10;98.50;;;;;;5075152;28;20021;-70
2021/12/12 13:12:56;;;;;;;6.72;1.50;;;16.20;98.70;;;;;;5065023;28;20144;-70
2021/12/12 13:15:54;;;;;;;7.25;1.77;;;16.40;98.00;;;;;;5074731;28;20024;-70
2021/12/12 13:18:32;;;;;;;8.65;1.80;;;16.10;97.80;;;;;;5074489;28;20096;-70
2021/12/12 13:21:37;;;;;;;6.60;1.63;;;16.10;97.90;;;;;;5074535;28;20100;-69
2021/12/12 13:24:33;;;;;;;8.45;1.85;;;15.80;98.20;;;;;;5055912;28;20029;-70
2021/12/12 13:27:29;;;;;;;6.90;1.70;;;15.60;98.60;;;;;;5074100;28;20077;-70
2021/12/12 13:30:12;;;;;;;8.65;1.70;;;15.50;98.40;;;;;;5072930;28;20073;-69
2021/12/12 13:33:04;;;;;;;10.23;2.13;;;15.40;98.60;;;;;;5074335;28;20025;-69
2021/12/12 13:35:47;;;;;;;6.03;1.67;;;15.30;98.50;;;;;;5073813;28;20036;-69
2021/12/12 13:38:13;;;;;;;10.38;1.90;;;15.40;98.80;;;;;;5074541;28;20075;-70
2021/12/12 13:41:01;;;;;;;9.27;2.07;;;15.50;98.80;;;;;;5073944;28;20040;-71
2021/12/12 13:43:50;;;;;;;6.75;1.73;;;15.40;98.30;;;;;;5074366;28;20024;-70
2021/12/12 13:46:55;;;;;;;9.95;1.80;;;15.40;98.40;;;;;;5074082;28;20384;-69
2021/12/12 13:49:26;;;;;;;10.80;1.87;;;15.70;98.60;;;;;;5055664;28;20025;-69
2021/12/12 13:51:58;;;;;;;10.93;1.55;;;15.30;98.10;;;;;;5055656;28;20039;-69